Time;durP1;ratioP1;P1;durP2;ratioP2;P2;SDS_P1;SDS_P2;PMS_P1;PMS_P2;Temp;Humidity;BMP_temperature;BMP_pressure;BME280_temperature;BME280_humidity;BME280_pressure;Samples;Min_cycle;Max_cycle;Signal;HPM_P1;HPM_P2
2022/09/17 00:00:59;;;;;;;16.03;5.27;;;;;;;8.65;91.50;97801.00;2190121;81;20933;-83
2022/09/17 00:04:04;;;;;;;14.70;4.20;;;;;;;8.66;91.42;97804.05;2190054;81;21336;-82
2022/09/17 00:07:00;;;;;;;4.87;4.37;;;;;;;8.65;91.51;97805.77;2189846;81;21003;-83
2022/09/17 00:10:01;;;;;;;5.83;4.17;;;;;;;8.67;91.39;97803.18;2190071;81;21032;-83
2022/09/17 00:13:01;;;;;;;5.27;3.80;;;;;;;8.63;91.32;97804.91;2189527;81;21391;-83
2022/09/17 00:16:01;;;;;;;3.97;3.43;;;;;;;8.61;91.19;97804.03;2189788;81;20936;-84
2022/09/17 00:19:02;;;;;;;7.43;3.90;;;;;;;8.57;91.11;97804.88;2189636;81;20976;-83
2022/09/17 00:22:02;;;;;;;4.37;3.70;;;;;;;8.51;90.99;97803.13;2189801;81;20999;-82
2022/09/17 00:25:03;;;;;;;8.83;4.10;;;;;;;8.47;90.98;97810.48;2189490;81;21332;-83
2022/09/17 00:28:03;;;;;;;4.57;4.00;;;;;;;8.42;90.97;97809.60;2189782;81;20957;-83
2022/09/17 00:31:03;;;;;;;4.63;3.77;;;;;;;8.37;91.14;97813.91;2187499;80;20981;-83
2022/09/17 00:34:04;;;;;;;5.40;3.80;;;;;;;8.30;91.14;97808.22;2172853;81;21008;-83
2022/09/17 00:37:04;;;;;;;4.83;3.73;;;;;;;8.24;91.06;97805.16;2173259;82;21092;-83
2022/09/17 00:40:05;;;;;;;7.03;4.20;;;;;;;8.20;91.20;97807.74;2173078;81;20902;-83
2022/09/17 00:43:05;;;;;;;4.30;3.90;;;;;;;8.16;91.21;97806.86;2173319;81;20969;-83
2022/09/17 00:46:05;;;;;;;7.90;3.87;;;;;;;8.14;91.41;97802.08;2173391;81;21032;-83
2022/09/17 00:49:06;;;;;;;3.90;3.50;;;;;;;8.14;91.19;97803.38;2172969;81;21411;-83
2022/09/17 00:52:06;;;;;;;7.40;3.63;;;;;;;8.10;90.75;97805.53;2173158;81;21412;-83
2022/09/17 00:55:07;;;;;;;8.73;4.00;;;;;;;8.04;90.66;97806.80;2173380;81;20937;-83
2022/09/17 00:58:07;;;;;;;6.73;4.13;;;;;;;7.97;90.87;97808.92;2173370;81;20981;-82
2022/09/17 01:01:07;;;;;;;5.70;4.23;;;;;;;7.89;91.49;97810.61;2173319;81;20941;-82
2022/09/17 01:04:08;;;;;;;9.03;4.30;;;;;;;7.88;91.31;97814.07;2173244;81;20897;-83
2022/09/17 01:07:08;;;;;;;5.67;3.70;;;;;;;7.85;91.18;97815.35;2173310;81;21075;-83
2022/09/17 01:10:09;;;;;;;5.33;3.80;;;;;;;7.86;91.71;97808.00;2173407;82;20991;-83
2022/09/17 01:13:09;;;;;;;5.77;3.27;;;;;;;7.89;91.69;97803.69;2173318;81;20969;-83
2022/09/17 01:16:09;;;;;;;6.00;3.60;;;;;;;7.89;91.93;97793.30;2173302;81;21038;-83
2022/09/17 01:19:10;;;;;;;7.57;3.97;;;;;;;7.91;91.97;97795.90;2173038;81;20894;-83
2022/09/17 01:22:10;;;;;;;8.27;3.50;;;;;;;7.90;91.96;97801.95;2173303;82;20940;-83
2022/09/17 01:25:11;;;;;;;9.67;3.73;;;;;;;7.90;91.89;97798.93;2173427;81;21344;-84
2022/09/17 01:28:11;;;;;;;4.33;3.07;;;;;;;7.91;91.67;97799.80;2173164;81;20945;-83
2022/09/17 01:31:11;;;;;;;9.30;4.03;;;;;;;7.90;91.57;97796.77;2173224;80;20969;-83
2022/09/17 01:34:13;;;;;;;4.17;2.90;;;;;;;7.90;91.81;97791.56;2173279;81;20977;-83
2022/09/17 01:37:15;;;;;;;4.27;2.70;;;;;;;7.91;91.91;97783.78;2172904;81;21375;-83
2022/09/17 01:40:14;;;;;;;7.00;3.17;;;;;;;7.95;91.85;97791.16;2166828;82;20957;-83
2022/09/17 01:43:16;;;;;;;12.33;4.40;;;;;;;7.93;91.06;97782.48;2173110;81;21316;-82
2022/09/17 01:46:15;;;;;;;7.67;3.20;;;;;;;7.84;90.46;97788.50;2173171;81;20932;-82
2022/09/17 01:49:16;;;;;;;7.87;2.63;;;;;;;7.76;90.13;97786.69;2173311;81;20965;-83
2022/09/17 01:52:16;;;;;;;4.13;2.90;;;;;;;7.63;90.04;97787.91;2173045;81;21360;-82
2022/09/17 01:55:16;;;;;;;6.63;3.10;;;;;;;7.53;90.26;97785.23;2173161;81;20897;-83
2022/09/17 01:58:17;;;;;;;7.33;3.03;;;;;;;7.48;90.28;97785.20;2173185;81;20925;-82
2022/09/17 02:01:18;;;;;;;3.33;2.73;;;;;;;7.44;90.34;97783.45;2173094;81;20941;-80
2022/09/17 02:04:18;;;;;;;7.93;3.07;;;;;;;7.39;90.02;97777.35;2173223;81;20961;-82
2022/09/17 02:07:21;;;;;;;8.27;3.10;;;;;;;7.32;90.45;97769.08;2172859;81;20972;-82
2022/09/17 02:10:22;;;;;;;9.43;2.60;;;;;;;7.27;90.47;97777.26;2173459;81;20945;-84
2022/09/17 02:13:22;;;;;;;3.00;2.30;;;;;;;7.20;90.44;97778.07;2173098;81;21356;-82
2022/09/17 02:16:22;;;;;;;3.67;2.63;;;;;;;7.17;90.28;97780.21;2173066;81;20925;-82
2022/09/17 02:19:23;;;;;;;3.53;2.77;;;;;;;7.09;89.89;97779.28;2173540;81;20894;-82
2022/09/17 02:22:23;;;;;;;8.77;2.83;;;;;;;7.05;90.04;97781.84;2173379;81;20897;-83
2022/09/17 02:25:24;;;;;;;4.63;2.67;;;;;;;6.95;89.84;97779.16;2173043;82;21324;-83
2022/09/17 02:28:24;;;;;;;3.20;2.90;;;;;;;6.87;90.01;97777.31;2173383;81;20966;-83
2022/09/17 02:31:24;;;;;;;4.97;3.07;;;;;;;6.81;90.31;97776.83;2174565;80;20933;-83
2022/09/17 02:34:26;;;;;;;9.10;2.83;;;;;;;6.82;90.88;97773.81;2189745;81;20929;-83
2022/09/17 02:37:26;;;;;;;17.43;3.63;;;;;;;6.85;91.23;97773.84;2189466;81;21012;-82
2022/09/17 02:40:26;;;;;;;7.93;3.07;;;;;;;6.87;91.01;97771.70;2189834;81;20917;-82
2022/09/17 02:43:27;;;;;;;4.13;2.87;;;;;;;6.87;90.93;97775.59;2189890;81;20925;-83
2022/09/17 02:46:27;;;;;;;4.60;2.73;;;;;;;6.82;90.37;97775.11;2189823;81;21261;-83
2022/09/17 02:49:27;;;;;;;5.83;2.50;;;;;;;6.76;90.82;97781.11;2189900;81;20905;-83
2022/09/17 02:52:30;;;;;;;5.27;3.10;;;;;;;6.75;91.13;97777.20;2189497;81;20980;-83
2022/09/17 02:55:28;;;;;;;3.63;3.30;;;;;;;6.76;91.91;97777.64;2189750;81;20964;-84
2022/09/17 02:58:28;;;;;;;2.80;2.60;;;;;;;6.78;92.19;97779.83;2189645;81;20968;-83
2022/09/17 03:01:29;;;;;;;6.83;3.00;;;;;;;6.83;92.16;97779.02;2189842;81;20941;-83
2022/09/17 03:04:29;;;;;;;4.90;2.60;;;;;;;6.80;92.36;97773.80;2189904;81;20889;-84
2022/09/17 03:07:31;;;;;;;17.37;3.93;;;;;;;6.80;91.40;97778.11;2189928;81;21383;-84
2022/09/17 03:10:32;;;;;;;11.43;3.40;;;;;;;6.80;91.96;97780.28;2189924;81;20921;-82
2022/09/17 03:13:30;;;;;;;3.53;2.80;;;;;;;6.78;91.81;97783.72;2189922;81;21047;-82
2022/09/17 03:16:31;;;;;;;7.53;3.43;;;;;;;6.75;91.60;97776.77;2190252;81;20948;-83
2022/09/17 03:19:31;;;;;;;7.90;3.83;;;;;;;6.68;91.60;97786.22;2190174;81;21360;-85
2022/09/17 03:22:31;;;;;;;3.17;2.73;;;;;;;6.69;92.44;97789.67;2190367;81;20979;-84
2022/09/17 03:25:32;;;;;;;9.77;3.77;;;;;;;6.75;92.64;97793.63;2190142;81;20964;-84
2022/09/17 03:28:32;;;;;;;6.00;3.90;;;;;;;6.82;93.69;97785.48;2189987;81;21305;-82
2022/09/17 03:31:33;;;;;;;7.30;3.83;;;;;;;6.92;94.08;97789.48;2189591;80;20957;-83
2022/09/17 03:34:33;;;;;;;4.53;3.97;;;;;;;6.94;93.68;97778.72;2189870;81;21000;-82
2022/09/17 03:37:33;;;;;;;4.67;4.10;;;;;;;6.99;94.17;97780.05;2189846;81;21032;-83
2022/09/17 03:40:34;;;;;;;6.17;4.37;;;;;;;7.09;94.91;97785.77;2189809;81;20925;-82
2022/09/17 03:43:34;;;;;;;7.90;5.57;;;;;;;7.18;95.12;97784.97;2189843;81;20963;-83
2022/09/17 03:46:35;;;;;;;7.93;5.20;;;;;;;7.24;95.36;97785.02;2189354;81;20988;-80
2022/09/17 03:49:35;;;;;;;6.73;5.00;;;;;;;7.34;95.93;97789.43;2189417;81;21404;-82
2022/09/17 03:52:35;;;;;;;8.03;4.70;;;;;;;7.43;95.65;97776.52;2189285;81;21035;-81
2022/09/17 03:55:36;;;;;;;6.17;5.03;;;;;;;7.47;95.55;97775.68;2189417;81;20916;-81
2022/09/17 03:58:37;;;;;;;10.37;5.63;;;;;;;7.51;95.42;97773.97;2189695;81;20936;-81
2022/09/17 04:01:37;;;;;;;7.40;5.27;;;;;;;7.54;95.43;97775.30;2189544;81;21340;-82
2022/09/17 04:04:37;;;;;;;10.33;5.73;;;;;;;7.54;95.17;97772.27;2189620;81;20920;-81
2022/09/17 04:07:37;;;;;;;8.50;5.77;;;;;;;7.56;95.11;97772.28;2190294;81;21016;-83
2022/09/17 04:10:38;;;;;;;8.23;5.00;;;;;;;7.57;95.28;97770.98;2189859;81;21296;-82
2022/09/17 04:13:38;;;;;;;6.73;5.43;;;;;;;7.60;95.12;97767.54;2189556;81;20972;-82
2022/09/17 04:16:39;;;;;;;10.20;5.93;;;;;;;7.60;95.24;97763.22;2189892;81;20976;-82
2022/09/17 04:19:39;;;;;;;12.33;5.87;;;;;;;7.61;95.11;97758.46;2189024;81;21312;-83
2022/09/17 04:22:39;;;;;;;7.07;5.60;;;;;;;7.65;94.99;97754.16;2188731;81;20993;-82
2022/09/17 04:25:40;;;;;;;7.03;5.70;;;;;;;7.66;94.82;97761.09;2188267;81;20964;-81
2022/09/17 04:28:40;;;;;;;61.77;10.63;;;;;;;7.66;94.48;97758.06;2189713;81;21328;-82
2022/09/17 04:31:41;;;;;;;15.30;6.90;;;;;;;7.66;94.47;97757.19;2189671;81;20948;-82
2022/09/17 04:34:41;;;;;;;22.90;7.20;;;;;;;7.68;94.46;97760.23;2189903;81;20984;-82
2022/09/17 04:37:41;;;;;;;10.47;6.77;;;;;;;7.73;94.58;97758.96;2187821;81;21067;-80
2022/09/17 04:40:42;;;;;;;11.70;6.77;;;;;;;7.75;94.21;97749.88;2188052;81;21368;-83
2022/09/17 04:43:42;;;;;;;12.80;7.97;;;;;;;7.76;94.45;97742.09;2188239;81;21450;-83
2022/09/17 04:46:43;;;;;;;11.33;6.73;;;;;;;7.79;94.10;97742.54;2188247;81;20972;-83
2022/09/17 04:49:45;;;;;;;9.30;7.33;;;;;;;7.83;94.04;97740.43;2170032;81;21415;-84
2022/09/17 04:52:45;;;;;;;11.20;8.03;;;;;;;7.87;93.95;97742.18;2189273;81;21027;-82
2022/09/17 04:55:48;;;;;;;12.50;8.90;;;;;;;7.90;93.81;97745.66;2171291;81;21494;-82
2022/09/17 04:58:48;;;;;;;11.63;7.93;;;;;;;7.96;93.90;97739.63;2188984;81;20968;-81
2022/09/17 05:01:48;;;;;;;9.37;7.70;;;;;;;8.06;94.07;97750.50;2190012;81;20968;-82
2022/09/17 05:04:49;;;;;;;10.70;9.60;;;;;;;8.15;93.84;97736.23;2189899;81;21344;-82
2022/09/17 05:07:49;;;;;;;14.07;8.40;;;;;;;8.26;93.74;97743.64;2190010;81;21023;-81
2022/09/17 05:10:50;;;;;;;10.67;8.13;;;;;;;8.40;93.66;97741.55;2189778;81;20991;-82
2022/09/17 05:13:52;;;;;;;14.77;7.90;;;;;;;8.55;93.31;97731.19;2189269;81;20988;-83
2022/09/17 05:16:52;;;;;;;10.73;7.77;;;;;;;8.68;92.93;97729.50;2173645;81;21039;-82
2022/09/17 05:19:55;;;;;;;9.93;7.73;;;;;;;8.82;92.82;97727.79;2169658;81;21475;-81
2022/09/17 05:22:55;;;;;;;15.47;10.13;;;;;;;8.97;92.19;97725.62;2187456;81;20979;-81
2022/09/17 05:25:55;;;;;;;13.73;9.67;;;;;;;9.05;91.81;97719.98;2186882;81;20995;-81
2022/09/17 05:28:56;;;;;;;17.53;9.20;;;;;;;9.14;91.58;97730.40;2186651;81;21003;-81
2022/09/17 05:31:56;;;;;;;13.47;9.03;;;;;;;9.30;91.47;97740.38;2187882;81;21023;-81
2022/09/17 05:34:57;;;;;;;15.03;7.90;;;;;;;9.44;90.91;97734.28;2189042;81;20967;-80
2022/09/17 05:37:57;;;;;;;11.07;8.50;;;;;;;9.57;90.56;97737.77;2188481;81;21054;-79
2022/09/17 05:40:57;;;;;;;17.77;10.20;;;;;;;9.76;89.81;97733.38;2188549;81;20999;-76
2022/09/17 05:43:58;;;;;;;12.23;8.73;;;;;;;9.98;89.26;97724.62;2187990;81;20995;-75
2022/09/17 05:46:58;;;;;;;14.57;7.87;;;;;;;10.16;88.36;97740.62;2188034;81;21007;-75
2022/09/17 05:49:59;;;;;;;12.10;8.07;;;;;;;10.25;87.73;97743.66;2188057;81;21340;-79
2022/09/17 05:52:59;;;;;;;9.17;7.40;;;;;;;10.38;88.09;97747.52;2187973;81;21000;-80
2022/09/17 05:56:00;;;;;;;9.60;8.40;;;;;;;10.55;87.58;97747.45;2188082;81;20980;-80
2022/09/17 05:59:00;;;;;;;13.60;9.83;;;;;;;10.77;87.02;97759.50;2189619;81;21003;-80
2022/09/17 06:02:00;;;;;;;12.80;9.08;;;;;;;10.95;86.60;97758.95;2189798;81;20967;-80
2022/09/17 06:05:02;;;;;;;12.47;8.83;;;;;;;11.06;86.28;97751.91;2189878;81;21009;-81
2022/09/17 06:08:01;;;;;;;12.33;7.60;;;;;;;11.17;85.54;97757.91;2189917;81;21415;-81
2022/09/17 06:11:02;;;;;;;9.90;7.90;;;;;;;11.38;84.11;97757.77;2189860;81;20960;-80
2022/09/17 06:14:02;;;;;;;10.63;8.23;;;;;;;11.61;84.11;97751.03;2189944;81;20961;-81
2022/09/17 06:17:03;;;;;;;11.45;8.48;;;;;;;11.80;83.61;97750.43;2189429;81;21010;-80
2022/09/17 06:20:05;;;;;;;9.73;7.90;;;;;;;11.92;82.17;97751.61;2189984;81;21368;-81
2022/09/17 06:23:04;;;;;;;9.78;7.08;;;;;;;11.99;81.11;97757.20;2189317;81;20940;-81
2022/09/17 06:26:04;;;;;;;10.95;8.78;;;;;;;12.13;80.50;97747.44;2188292;81;21004;-80
2022/09/17 06:29:05;;;;;;;13.22;7.83;;;;;;;12.34;81.01;97741.55;2188241;81;20995;-80
2022/09/17 06:32:07;;;;;;;8.88;6.42;;;;;;;12.52;78.67;97750.47;2188020;81;21395;-80
2022/09/17 06:35:06;;;;;;;7.90;6.60;;;;;;;12.55;78.69;97754.80;2171657;81;21047;-80
2022/09/17 06:38:06;;;;;;;12.03;7.22;;;;;;;12.56;77.86;97747.38;2171285;81;21047;-82
2022/09/17 06:41:07;;;;;;;10.60;7.30;;;;;;;12.63;78.22;97747.27;2172873;81;20992;-80
2022/09/17 06:44:07;;;;;;;10.98;6.47;;;;;;;12.68;77.68;97746.77;2171288;81;21055;-82
2022/09/17 06:47:07;;;;;;;9.23;6.17;;;;;;;12.69;76.90;97739.33;2170428;81;20987;-80
2022/09/17 06:50:08;;;;;;;14.20;6.90;;;;;;;12.71;75.74;97732.31;2170972;81;20964;-80
2022/09/17 06:53:08;;;;;;;13.95;7.85;;;;;;;12.70;76.69;97724.04;2170450;81;21035;-80
2022/09/17 06:56:09;;;;;;;8.60;6.90;;;;;;;12.63;76.96;97721.09;2171277;82;21036;-79
2022/09/17 06:59:09;;;;;;;9.75;7.28;;;;;;;12.44;76.31;97733.56;2171687;81;20992;-80
2022/09/17 07:02:09;;;;;;;15.18;6.95;;;;;;;12.24;76.44;97748.66;2172080;81;20999;-80
2022/09/17 07:05:10;;;;;;;15.18;7.53;;;;;;;12.21;76.79;97751.75;2171840;81;21004;-79
2022/09/17 07:08:10;;;;;;;9.73;7.50;;;;;;;12.19;76.72;97750.45;2170492;81;21067;-80
2022/09/17 07:11:11;;;;;;;15.88;7.50;;;;;;;12.43;77.07;97742.30;2170843;81;20968;-79
2022/09/17 07:14:11;;;;;;;14.68;7.42;;;;;;;12.43;77.07;97742.30;2171052;81;21470;-80
2022/09/17 07:17:11;;;;;;;8.70;5.97;;;;;;;12.62;76.53;97751.22;2171297;81;20992;-80
2022/09/17 07:20:12;;;;;;;10.98;6.70;;;;;;;12.72;73.96;97764.16;2171609;81;20996;-80
2022/09/17 07:23:12;;;;;;;9.63;6.35;;;;;;;12.88;74.85;97762.63;2172163;81;20940;-79
2022/09/17 07:26:13;;;;;;;9.65;6.05;;;;;;;13.03;73.54;97772.47;2172687;81;20921;-80
2022/09/17 07:29:13;;;;;;;12.88;6.42;;;;;;;13.26;73.74;97760.36;2173301;81;20949;-80
2022/09/17 07:32:13;;;;;;;8.60;5.78;;;;;;;13.49;73.06;97756.48;2173166;81;20973;-80
2022/09/17 07:35:14;;;;;;;9.38;5.58;;;;;;;13.80;72.66;97753.74;2171718;81;21052;-80
2022/09/17 07:38:14;;;;;;;10.08;4.87;;;;;;;14.08;69.90;97742.31;2171482;81;21032;-80
2022/09/17 07:41:15;;;;;;;9.60;4.60;;;;;;;14.18;68.87;97750.86;2171779;81;20972;-79
2022/09/17 07:44:15;;;;;;;6.17;4.80;;;;;;;14.25;68.90;97755.96;2171680;81;20944;-80
2022/09/17 07:47:15;;;;;;;6.30;4.40;;;;;;;14.35;65.92;97757.50;2171394;81;21391;-80
2022/09/17 07:50:16;;;;;;;10.50;4.45;;;;;;;14.50;66.44;97741.05;2171451;81;20976;-80
2022/09/17 07:53:17;;;;;;;16.77;4.33;;;;;;;14.37;67.02;97746.97;2171605;82;21044;-80
2022/09/17 07:56:17;;;;;;;5.80;4.20;;;;;;;14.26;66.86;97766.02;2171532;81;21028;-79
2022/09/17 07:59:18;;;;;;;6.80;4.00;;;;;;;14.24;66.72;97771.73;2171285;81;21035;-80
2022/09/17 08:02:18;;;;;;;11.22;4.58;;;;;;;14.37;66.59;97776.30;2172845;81;20964;-80
2022/09/17 08:05:18;;;;;;;10.03;4.10;;;;;;;14.28;65.44;97785.22;2173081;82;20965;-79
2022/09/17 08:08:18;;;;;;;7.08;4.33;;;;;;;14.25;66.24;97779.58;2173145;81;21004;-80
2022/09/17 08:11:19;;;;;;;10.40;4.10;;;;;;;14.38;65.47;97785.45;2173548;81;20960;-80
2022/09/17 08:14:19;;;;;;;4.75;3.70;;;;;;;14.55;65.83;97787.31;2173558;81;20969;-80
2022/09/17 08:17:20;;;;;;;7.62;4.28;;;;;;;14.64;64.80;97779.25;2172982;81;21309;-79
2022/09/17 08:20:20;;;;;;;6.72;3.55;;;;;;;14.63;64.61;97772.27;2172781;82;21011;-79
2022/09/17 08:23:20;;;;;;;4.72;3.77;;;;;;;14.63;64.33;97774.03;2172829;81;20929;-79
2022/09/17 08:26:21;;;;;;;3.55;3.17;;;;;;;14.73;65.17;97777.32;2171726;81;20952;-79
2022/09/17 08:29:21;;;;;;;9.58;4.10;;;;;;;14.72;63.69;97784.78;2171899;81;21356;-79
2022/09/17 08:32:22;;;;;;;7.83;3.70;;;;;;;14.77;65.29;97781.20;2171894;81;21015;-79
2022/09/17 08:35:25;;;;;;;4.87;3.25;;;;;;;14.73;64.35;97771.62;2171037;81;21044;-80
2022/09/17 08:38:22;;;;;;;7.22;4.08;;;;;;;14.61;64.74;97770.13;2171989;81;20997;-79
2022/09/17 08:41:23;;;;;;;6.25;3.42;;;;;;;14.68;65.66;97760.80;2172742;81;21300;-80
2022/09/17 08:44:23;;;;;;;6.33;3.58;;;;;;;14.88;64.59;97762.56;2171475;81;20953;-80
2022/09/17 08:47:24;;;;;;;4.35;3.33;;;;;;;15.38;64.96;97763.14;2173321;81;20968;-80
2022/09/17 08:50:24;;;;;;;4.40;3.15;;;;;;;15.72;63.14;97748.30;2173592;81;21333;-79
2022/09/17 08:53:24;;;;;;;5.60;2.80;;;;;;;15.79;62.82;97752.50;2173489;82;20973;-80
2022/09/17 08:56:25;;;;;;;7.35;3.45;;;;;;;15.90;62.11;97755.71;2173651;81;20929;-79
2022/09/17 08:59:25;;;;;;;3.55;3.17;;;;;;;15.95;62.22;97762.63;2173578;81;21000;-80
2022/09/17 09:02:26;;;;;;;5.05;2.95;;;;;;;15.89;60.72;97755.30;2172952;81;20988;-79
2022/09/17 09:05:27;;;;;;;9.68;2.70;;;;;;;16.01;61.78;97758.50;2173221;81;20941;-80
2022/09/17 09:08:26;;;;;;;4.25;2.85;;;;;;;16.19;61.04;97772.48;2173122;81;21293;-79
2022/09/17 09:11:29;;;;;;;3.47;2.50;;;;;;;16.27;61.39;97769.64;2172059;81;20993;-80
2022/09/17 09:14:27;;;;;;;2.58;2.17;;;;;;;16.23;61.27;97768.86;2172478;81;20996;-80
2022/09/17 09:17:28;;;;;;;6.53;2.60;;;;;;;16.21;60.61;97764.95;2172944;81;20989;-79
2022/09/17 09:20:31;;;;;;;5.10;2.42;;;;;;;16.13;60.86;97756.41;2173510;82;21317;-80
2022/09/17 09:23:31;;;;;;;2.73;2.33;;;;;;;16.02;61.27;97741.36;2173212;81;20968;-80
2022/09/17 09:26:32;;;;;;;5.60;2.60;;;;;;;15.83;61.04;97729.15;2172423;82;21348;-80
2022/09/17 09:29:32;;;;;;;9.53;2.58;;;;;;;15.71;61.95;97726.84;2171404;81;21051;-79
2022/09/17 09:32:33;;;;;;;5.90;2.70;;;;;;;15.54;62.47;97727.67;2171839;82;21000;-80
2022/09/17 09:35:33;;;;;;;5.30;2.67;;;;;;;15.49;62.63;97754.54;2172328;81;21420;-79
2022/09/17 09:38:33;;;;;;;5.22;2.75;;;;;;;15.73;62.88;97750.48;2171526;81;21008;-80
2022/09/17 09:41:36;;;;;;;3.15;2.10;;;;;;;15.81;62.53;97748.06;2171428;81;20984;-80
2022/09/17 09:44:34;;;;;;;2.95;2.17;;;;;;;15.79;61.47;97744.61;2171589;81;20988;-79
2022/09/17 09:47:35;;;;;;;4.25;2.08;;;;;;;15.92;61.67;97747.32;2170918;81;20933;-79
2022/09/17 09:50:35;;;;;;;3.08;2.08;;;;;;;16.30;61.56;97747.17;2170326;81;20988;-80
2022/09/17 09:53:35;;;;;;;3.50;2.22;;;;;;;16.32;60.54;97744.91;2171247;81;21432;-80
2022/09/17 09:56:36;;;;;;;6.40;2.30;;;;;;;16.18;60.58;97761.54;2170905;81;20992;-79
2022/09/17 09:59:36;;;;;;;3.58;2.00;;;;;;;15.88;61.38;97768.05;2171056;81;21043;-80
2022/09/17 10:02:37;;;;;;;4.15;2.12;;;;;;;15.45;61.12;97760.77;2171116;81;20992;-80
2022/09/17 10:05:37;;;;;;;2.72;2.30;;;;;;;15.12;62.56;97767.70;2172783;82;21313;-80
2022/09/17 10:08:37;;;;;;;4.53;2.60;;;;;;;14.93;63.33;97784.34;2170936;81;21103;-81
2022/09/17 10:11:38;;;;;;;5.40;2.58;;;;;;;15.00;63.93;97783.76;2170440;81;21036;-80
2022/09/17 10:14:38;;;;;;;5.10;3.00;;;;;;;14.98;64.13;97785.97;2169909;81;21012;-81
2022/09/17 10:17:40;;;;;;;3.42;2.50;;;;;;;14.95;65.67;97772.04;2170316;81;21016;-80
2022/09/17 10:20:39;;;;;;;4.72;2.85;;;;;;;15.18;66.10;97771.06;2169598;81;20979;-80
2022/09/17 10:23:39;;;;;;;3.75;2.37;;;;;;;15.43;65.48;97781.85;2170643;81;20964;-81
2022/09/17 10:26:40;;;;;;;3.30;2.15;;;;;;;15.66;64.62;97778.72;2170734;81;21309;-80
2022/09/17 10:29:40;;;;;;;2.77;2.33;;;;;;;15.81;63.85;97779.63;2170722;81;20984;-80
2022/09/17 10:32:41;;;;;;;4.12;2.10;;;;;;;16.00;63.62;97773.89;2170855;81;21078;-80
2022/09/17 10:35:41;;;;;;;3.37;2.02;;;;;;;16.03;62.91;97772.48;2186489;81;20946;-80
2022/09/17 10:38:41;;;;;;;5.90;2.20;;;;;;;15.80;62.15;97772.64;2189798;81;21429;-80
2022/09/17 10:41:42;;;;;;;5.42;2.27;;;;;;;15.52;63.04;97776.81;2189060;81;21359;-79
2022/09/17 10:44:42;;;;;;;5.05;2.60;;;;;;;15.22;63.29;97779.28;2189674;81;20964;-81
2022/09/17 10:47:45;;;;;;;2.83;2.50;;;;;;;14.86;64.08;97784.07;2190205;81;20993;-81
2022/09/17 10:50:46;;;;;;;3.30;2.55;;;;;;;14.51;65.04;97781.72;2190153;81;20968;-81
2022/09/17 10:53:46;;;;;;;4.30;2.80;;;;;;;14.37;66.23;97783.72;2190068;81;20960;-80
2022/09/17 10:56:46;;;;;;;4.50;2.80;;;;;;;14.28;66.40;97790.47;2188925;81;21384;-82
2022/09/17 10:59:47;;;;;;;3.67;2.92;;;;;;;14.46;66.95;97792.77;2189718;81;20948;-81
2022/09/17 11:02:47;;;;;;;6.80;3.27;;;;;;;14.55;66.35;97799.14;2189826;81;20969;-80
2022/09/17 11:05:48;;;;;;;3.52;2.58;;;;;;;14.62;66.53;97796.80;2189925;81;20885;-80
2022/09/17 11:08:49;;;;;;;4.55;3.27;;;;;;;14.64;65.87;97780.56;2188387;81;21415;-80
2022/09/17 11:11:49;;;;;;;6.10;3.80;;;;;;;14.52;66.85;97782.13;2189574;81;20971;-80
2022/09/17 11:14:50;;;;;;;3.83;2.77;;;;;;;14.45;67.13;97781.84;2189112;81;21046;-81
2022/09/17 11:17:50;;;;;;;4.42;3.10;;;;;;;14.33;66.90;97784.23;2187888;81;21011;-80
2022/09/17 11:20:50;;;;;;;5.15;3.00;;;;;;;14.13;67.59;97790.77;2187713;81;20972;-81
2022/09/17 11:23:51;;;;;;;5.60;3.58;;;;;;;13.94;68.05;97793.73;2187884;81;20936;-80
2022/09/17 11:26:51;;;;;;;4.53;3.62;;;;;;;13.76;69.51;97808.90;2187396;81;21015;-80
2022/09/17 11:29:51;;;;;;;4.60;3.42;;;;;;;13.57;70.13;97810.52;2187062;81;21857;-81
2022/09/17 11:32:52;;;;;;;5.40;2.95;;;;;;;13.54;70.98;97807.09;2187605;81;21034;-81
2022/09/17 11:35:55;;;;;;;8.50;3.45;;;;;;;13.57;70.87;97803.10;2188372;81;20988;-81
2022/09/17 11:38:53;;;;;;;5.47;3.58;;;;;;;13.71;70.68;97806.36;2188127;81;21399;-81
2022/09/17 11:41:53;;;;;;;3.40;3.05;;;;;;;13.92;70.50;97806.02;2189939;81;20960;-81
2022/09/17 11:44:53;;;;;;;6.92;3.22;;;;;;;14.24;69.97;97805.41;2190183;81;21003;-80
2022/09/17 11:47:54;;;;;;;4.67;3.27;;;;;;;14.30;69.00;97801.80;2190166;81;20964;-80
2022/09/17 11:50:54;;;;;;;4.25;3.62;;;;;;;14.27;68.87;97796.17;2189921;81;20933;-81
2022/09/17 11:53:55;;;;;;;5.20;3.10;;;;;;;14.25;69.00;97795.78;2189978;81;20917;-79
2022/09/17 11:56:55;;;;;;;8.78;3.90;;;;;;;14.37;69.26;97804.73;2190177;81;20964;-80
2022/09/17 11:59:55;;;;;;;6.92;3.75;;;;;;;14.40;68.68;97805.98;2189864;81;20933;-81
2022/09/17 12:02:56;;;;;;;6.85;3.80;;;;;;;14.26;69.27;97808.88;2189874;81;20993;-80
2022/09/17 12:05:56;;;;;;;11.97;4.00;;;;;;;14.28;69.35;97804.91;2190092;81;20885;-80
2022/09/17 12:08:57;;;;;;;10.82;6.35;;;;;;;14.42;69.37;97797.66;2188218;81;21031;-80
2022/09/17 12:11:57;;;;;;;10.55;7.70;;;;;;;14.55;69.52;97795.20;2189584;81;20948;-81
2022/09/17 12:14:58;;;;;;;6.15;4.62;;;;;;;14.63;69.51;97798.98;2189541;81;21012;-80
2022/09/17 12:17:58;;;;;;;9.15;3.70;;;;;;;14.42;68.89;97810.78;2189489;81;20908;-83
2022/09/17 12:20:58;;;;;;;9.38;4.55;;;;;;;14.15;71.89;97817.84;2189964;81;20936;-81
2022/09/17 12:23:59;;;;;;;11.00;7.08;;;;;;;13.75;73.67;97819.84;2190185;81;20932;-82
2022/09/17 12:26:59;;;;;;;8.58;6.12;;;;;;;13.56;75.77;97817.11;2190072;81;20925;-82
2022/09/17 12:30:00;;;;;;;7.47;6.47;;;;;;;13.53;76.62;97815.84;2190224;81;20961;-82
2022/09/17 12:33:01;;;;;;;8.15;7.17;;;;;;;13.61;76.95;97806.96;2190026;81;20995;-82
2022/09/17 12:36:00;;;;;;;7.80;5.62;;;;;;;13.85;77.68;97795.18;2189568;81;21447;-82
2022/09/17 12:39:01;;;;;;;10.68;6.85;;;;;;;14.16;77.40;97795.52;2190137;81;21009;-83
2022/09/17 12:42:01;;;;;;;8.68;6.12;;;;;;;14.39;77.68;97798.13;2190489;81;20932;-82
2022/09/17 12:45:02;;;;;;;15.85;6.35;;;;;;;14.63;77.45;97789.34;2190197;81;20963;-82
2022/09/17 12:48:02;;;;;;;6.60;5.30;;;;;;;14.77;76.45;97792.15;2190395;81;20991;-83
2022/09/17 12:51:02;;;;;;;5.85;5.25;;;;;;;14.79;75.65;97787.73;2190399;81;20948;-82
2022/09/17 12:54:03;;;;;;;8.13;5.47;;;;;;;14.78;77.20;97784.69;2189546;81;21000;-83
2022/09/17 12:57:03;;;;;;;7.20;6.30;;;;;;;14.64;75.80;97788.89;2189774;81;20944;-81
2022/09/17 13:00:04;;;;;;;10.35;6.90;;;;;;;14.44;76.89;97790.61;2189857;81;20929;-82
2022/09/17 13:03:04;;;;;;;7.53;6.83;;;;;;;14.20;77.78;97787.12;2189428;81;20952;-83
2022/09/17 13:06:05;;;;;;;6.78;4.03;;;;;;;14.16;78.34;97782.39;2190045;81;20889;-81
2022/09/17 13:09:05;;;;;;;4.97;3.80;;;;;;;14.24;77.54;97787.04;2189798;81;20956;-81
2022/09/17 13:12:05;;;;;;;6.65;3.75;;;;;;;14.20;77.77;97785.38;2189750;81;20992;-81
2022/09/17 13:15:06;;;;;;;7.42;3.80;;;;;;;14.27;76.84;97779.11;2190080;81;20945;-82
2022/09/17 13:18:06;;;;;;;5.83;4.60;;;;;;;14.37;77.36;97771.05;2190155;81;21316;-82
2022/09/17 13:21:07;;;;;;;6.95;5.10;;;;;;;14.48;76.72;97760.77;2189162;81;21276;-82
2022/09/17 13:24:07;;;;;;;9.15;5.12;;;;;;;14.57;77.30;97757.95;2189286;81;20992;-83
2022/09/17 13:27:07;;;;;;;9.50;4.95;;;;;;;14.75;76.58;97753.23;2188311;81;20965;-82
2022/09/17 13:30:08;;;;;;;7.97;5.75;;;;;;;14.68;76.41;97753.78;2188569;81;21338;-82
2022/09/17 13:33:09;;;;;;;6.33;4.97;;;;;;;14.71;76.82;97758.10;2188093;81;21027;-83
2022/09/17 13:36:08;;;;;;;10.23;6.55;;;;;;;14.72;76.28;97757.20;2187882;81;21062;-82
2022/09/17 13:39:09;;;;;;;11.70;6.30;;;;;;;14.73;76.73;97751.05;2188702;81;21000;-83
2022/09/17 13:42:09;;;;;;;7.67;4.37;;;;;;;14.84;76.80;97751.71;2189994;81;20944;-81
2022/09/17 13:45:10;;;;;;;8.03;5.60;;;;;;;14.94;74.29;97752.78;2190099;81;21391;-82
2022/09/17 13:48:10;;;;;;;9.23;4.95;;;;;;;14.93;75.53;97744.94;2188238;81;21051;-81
2022/09/17 13:51:10;;;;;;;7.80;5.17;;;;;;;15.00;74.42;97734.70;2188194;81;21027;-82
2022/09/17 13:54:11;;;;;;;9.08;5.33;;;;;;;14.96;74.83;97739.16;2188164;81;21007;-81
2022/09/17 13:57:11;;;;;;;7.85;4.78;;;;;;;15.02;74.99;97742.55;2188697;81;20979;-81
2022/09/17 14:00:12;;;;;;;5.55;4.90;;;;;;;15.11;74.91;97735.75;2189948;81;20980;-80
2022/09/17 14:03:12;;;;;;;9.33;6.05;;;;;;;15.30;74.50;97741.84;2190017;81;20912;-81
2022/09/17 14:06:20;;;;;;;5.00;4.25;;;;;;;15.39;74.78;97739.89;2188287;81;20975;-81
2022/09/17 14:09:19;;;;;;;7.10;5.80;;;;;;;15.47;73.87;97726.09;2188040;81;21035;-81